Time;durP1;ratioP1;P1;durP2;ratioP2;P2;SDS_P1;SDS_P2;PMS_P1;PMS_P2;Temp;Humidity;BMP_temperature;BMP_pressure;BME280_temperature;BME280_humidity;BME280_pressure;Samples;Min_cycle;Max_cycle;Signal;HPM_P1;HPM_P2
2024/01/06 00:01:45;;;;;;;;;52.00;40.00;;;;;6.30;100.00;97794.00;6222715;28;96330;-58
2024/01/06 00:04:48;;;;;;;;;55.40;43.00;;;;;6.45;100.00;97799.81;6222397;28;96898;-57
2024/01/06 00:07:51;;;;;;;;;55.40;43.40;;;;;6.42;100.00;97792.22;6220704;28;97262;-58
2024/01/06 00:10:55;;;;;;;;;52.00;41.25;;;;;6.42;100.00;97790.34;6203657;28;98555;-57
2024/01/06 00:13:59;;;;;;;;;53.75;41.00;;;;;6.33;100.00;97809.59;6222826;28;96353;-57
2024/01/06 00:17:02;;;;;;;;;53.00;42.40;;;;;6.24;100.00;97797.53;6186490;28;98344;-58
2024/01/06 00:20:07;;;;;;;;;53.50;42.50;;;;;6.36;100.00;97801.94;6221795;28;96399;-58
2024/01/06 00:23:10;;;;;;;;;57.00;44.00;;;;;6.41;100.00;97785.22;6220582;28;96346;-58
2024/01/06 00:26:13;;;;;;;;;56.00;43.00;;;;;6.49;100.00;97782.25;6196930;28;98998;-57
2024/01/06 00:29:18;;;;;;;;;56.80;43.40;;;;;6.49;100.00;97784.94;6221213;28;96470;-59
2024/01/06 00:32:21;;;;;;;;;55.60;43.60;;;;;6.51;100.00;97788.19;6218647;28;96454;-58
2024/01/06 00:35:24;;;;;;;;;54.80;42.20;;;;;6.52;100.00;97776.44;6219662;28;96507;-57
2024/01/06 00:38:27;;;;;;;;;52.40;41.00;;;;;6.54;100.00;97787.78;6215612;28;97073;-58
2024/01/06 00:41:30;;;;;;;;;58.00;44.00;;;;;6.66;100.00;97788.66;6219725;28;97209;-58
2024/01/06 00:44:37;;;;;;;;;55.00;43.40;;;;;6.69;100.00;97788.22;6220671;28;96608;-58
2024/01/06 00:47:40;;;;;;;;;56.00;43.00;;;;;6.62;100.00;97782.09;6218005;28;96564;-58
2024/01/06 00:50:43;;;;;;;;;52.40;41.00;;;;;6.61;100.00;97780.47;6213267;28;97558;-62
2024/01/06 00:53:47;;;;;;;;;52.60;40.00;;;;;6.54;100.00;97779.75;6211342;28;96534;-62
2024/01/06 00:56:50;;;;;;;;;56.00;43.00;;;;;6.53;100.00;97770.06;6181775;28;96531;-62
2024/01/06 00:59:56;;;;;;;;;55.00;43.00;;;;;6.59;100.00;97758.47;6201703;28;96336;-61
2024/01/06 01:02:59;;;;;;;;;50.80;41.20;;;;;6.74;100.00;97750.06;6196018;28;96727;-62
2024/01/06 01:06:03;;;;;;;;;55.20;42.00;;;;;6.76;100.00;97754.13;6211043;28;96695;-62
2024/01/06 01:09:06;;;;;;;;;51.80;41.00;;;;;6.78;100.00;97761.94;6211432;28;98126;-62
2024/01/06 01:12:09;;;;;;;;;53.60;43.00;;;;;6.82;100.00;97752.41;6211307;28;97398;-62
2024/01/06 01:15:14;;;;;;;;;54.00;42.60;;;;;6.91;100.00;97762.59;6217438;28;96860;-62
2024/01/06 01:18:17;;;;;;;;;50.25;40.00;;;;;6.96;100.00;97760.06;6234691;28;97104;-61
2024/01/06 01:21:20;;;;;;;;;52.20;41.80;;;;;6.91;100.00;97759.91;6237475;27;96330;-62
2024/01/06 01:24:23;;;;;;;;;51.60;40.40;;;;;7.01;100.00;97761.22;6226162;28;97023;-62
2024/01/06 01:27:27;;;;;;;;;56.00;42.25;;;;;7.04;100.00;97758.91;6198439;28;97416;-61
2024/01/06 01:30:32;;;;;;;;;53.60;42.00;;;;;6.95;100.00;97768.31;6211094;28;96347;-61
2024/01/06 01:33:35;;;;;;;;;50.80;39.60;;;;;7.04;100.00;97775.00;6212856;28;96156;-61
2024/01/06 01:36:38;;;;;;;;;50.20;39.60;;;;;7.10;100.00;97757.19;6226346;28;96220;-61
2024/01/06 01:39:42;;;;;;;;;53.25;41.25;;;;;7.18;100.00;97751.53;6221645;28;96526;-62
2024/01/06 01:42:45;;;;;;;;;46.40;38.20;;;;;6.94;100.00;97750.59;6230703;28;96855;-61
2024/01/06 01:45:53;;;;;;;;;50.60;38.60;;;;;6.92;100.00;97745.47;6216537;28;96767;-61
2024/01/06 01:48:58;;;;;;;;;50.00;41.00;;;;;6.87;100.00;97741.84;6211300;28;96873;-61
2024/01/06 01:52:02;;;;;;;;;48.00;38.00;;;;;6.74;100.00;97750.06;6199553;28;96635;-61
2024/01/06 01:55:06;;;;;;;;;53.00;40.00;;;;;6.60;100.00;97735.19;6188206;28;96418;-61
2024/01/06 01:58:11;;;;;;;;;52.00;40.00;;;;;6.82;100.00;97753.22;6186384;28;96851;-61
2024/01/06 02:01:16;;;;;;;;;47.60;37.60;;;;;6.94;100.00;97743.38;6190233;28;96429;-57
2024/01/06 02:04:19;;;;;;;;;50.00;39.40;;;;;7.02;100.00;97739.56;6421842;22;99381;-56
2024/01/06 02:07:22;;;;;;;;;51.00;41.00;;;;;7.13;100.00;97740.69;6290279;27;96731;-54
2024/01/06 02:10:26;;;;;;;;;48.50;38.00;;;;;7.20;100.00;97749.44;6267393;27;96285;-54
2024/01/06 02:13:34;;;;;;;;;48.00;38.00;;;;;7.27;100.00;97752.84;6269011;27;96197;-54
2024/01/06 02:16:39;;;;;;;;;49.40;39.00;;;;;7.37;100.00;97740.53;6264741;27;98878;-54
2024/01/06 02:19:42;;;;;;;;;49.00;39.00;;;;;7.40;100.00;97734.69;6267219;27;96270;-53
2024/01/06 02:22:47;;;;;;;;;52.00;41.00;;;;;7.25;100.00;97720.06;6244625;27;97328;-56
2024/01/06 02:25:50;;;;;;;;;55.75;42.00;;;;;7.11;100.00;97730.16;6240820;28;96230;-56
2024/01/06 02:28:53;;;;;;;;;50.25;40.00;;;;;7.20;100.00;97741.38;6253024;27;96349;-54
2024/01/06 02:31:57;;;;;;;;;51.00;39.00;;;;;7.19;100.00;97737.06;6266366;28;96948;-54
2024/01/06 02:35:00;;;;;;;;;50.00;39.00;;;;;7.26;100.00;97748.53;6248699;28;96326;-54
2024/01/06 02:38:05;;;;;;;;;53.40;40.60;;;;;7.19;100.00;97745.09;6266761;27;96281;-54
2024/01/06 02:41:08;;;;;;;;;55.00;42.00;;;;;7.06;100.00;97758.69;6264903;27;96575;-54
2024/01/06 02:44:13;;;;;;;;;55.00;43.00;;;;;7.02;100.00;97752.97;6286148;27;96244;-54
2024/01/06 02:47:16;;;;;;;;;53.50;41.50;;;;;7.15;100.00;97751.97;6241099;28;96253;-54
2024/01/06 02:50:19;;;;;;;;;56.20;43.80;;;;;7.25;100.00;97752.25;6241394;28;96177;-54
2024/01/06 02:53:24;;;;;;;;;50.50;41.00;;;;;7.30;100.00;97745.16;6256538;27;96268;-54
2024/01/06 02:56:27;;;;;;;;;52.00;41.80;;;;;7.26;100.00;97749.34;6265336;28;96338;-54
2024/01/06 02:59:30;;;;;;;;;57.00;43.00;;;;;7.18;100.00;97744.31;6252968;27;96212;-54
2024/01/06 03:02:35;;;;;;;;;55.20;44.00;;;;;7.00;100.00;97735.47;6273058;27;96386;-54
2024/01/06 03:05:38;;;;;;;;;57.80;44.80;;;;;6.85;100.00;97738.56;6292042;27;97744;-54
2024/01/06 03:08:43;;;;;;;;;54.00;43.25;;;;;6.73;100.00;97737.69;6278976;27;96411;-54
2024/01/06 03:11:46;;;;;;;;;53.00;42.00;;;;;6.77;100.00;97730.84;6238450;28;96308;-56
2024/01/06 03:14:51;;;;;;;;;56.80;44.00;;;;;6.79;100.00;97731.44;6214795;28;96362;-56
2024/01/06 03:17:54;;;;;;;;;55.40;43.40;;;;;6.79;100.00;97729.56;6216275;27;96300;-56
2024/01/06 03:20:57;;;;;;;;;57.60;43.00;;;;;6.86;100.00;97737.50;6215766;28;96240;-56
2024/01/06 03:24:02;;;;;;;;;52.20;41.40;;;;;6.80;100.00;97731.19;6218946;28;96828;-56
2024/01/06 03:27:05;;;;;;;;;52.50;42.00;;;;;6.82;100.00;97729.13;6240303;27;96363;-56
2024/01/06 03:30:09;;;;;;;;;50.60;41.00;;;;;6.76;100.00;97721.16;6221912;28;98452;-56
2024/01/06 03:33:12;;;;;;;;;56.20;43.80;;;;;6.76;100.00;97705.91;6227633;27;96369;-56
2024/01/06 03:36:16;;;;;;;;;52.80;41.80;;;;;6.96;100.00;97730.59;6246961;27;96630;-56
2024/01/06 03:39:21;;;;;;;;;52.20;41.00;;;;;6.76;100.00;97730.00;6240339;28;96342;-56
2024/01/06 03:42:24;;;;;;;;;49.20;39.00;;;;;6.64;100.00;97723.81;6238859;28;98480;-56
2024/01/06 03:45:27;;;;;;;;;50.00;41.40;;;;;6.79;100.00;97721.53;6217390;27;96273;-56
2024/01/06 03:48:31;;;;;;;;;51.00;40.00;;;;;6.81;100.00;97718.63;6215110;28;96370;-56
2024/01/06 03:51:35;;;;;;;;;52.40;42.20;;;;;6.73;100.00;97711.72;6236308;28;96304;-56
2024/01/06 03:54:39;;;;;;;;;50.80;40.60;;;;;6.61;100.00;97712.69;6252670;27;96479;-56
2024/01/06 03:57:42;;;;;;;;;49.00;39.75;;;;;6.63;100.00;97724.00;6240677;27;96389;-56
2024/01/06 04:00:46;;;;;;;;;49.40;39.40;;;;;6.82;100.00;97725.63;6237372;28;96306;-56
2024/01/06 04:03:49;;;;;;;;;50.00;39.75;;;;;6.91;100.00;97719.72;6221649;27;96247;-56
2024/01/06 04:06:52;;;;;;;;;52.80;42.00;;;;;7.06;100.00;97723.84;6229792;27;96392;-56
2024/01/06 04:09:57;;;;;;;;;50.00;39.00;;;;;6.97;100.00;97701.94;6238590;27;96295;-56
2024/01/06 04:13:00;;;;;;;;;47.80;39.00;;;;;7.18;100.00;97719.38;6236303;27;96352;-56
2024/01/06 04:16:05;;;;;;;;;46.80;38.00;;;;;7.15;100.00;97717.94;6234792;28;96414;-56
2024/01/06 04:19:08;;;;;;;;;53.00;42.00;;;;;7.07;100.00;97722.81;6239434;28;96462;-56
2024/01/06 04:22:12;;;;;;;;;50.00;41.00;;;;;7.08;100.00;97709.19;6245317;27;98289;-53
2024/01/06 04:25:16;;;;;;;;;52.80;42.00;;;;;7.03;100.00;97713.59;6244302;28;96389;-53
2024/01/06 04:28:19;;;;;;;;;51.20;40.60;;;;;7.01;100.00;97715.69;6250234;27;96730;-53
2024/01/06 04:31:22;;;;;;;;;47.40;39.00;;;;;6.93;100.00;97717.66;6246121;27;96491;-53
2024/01/06 04:34:25;;;;;;;;;49.80;41.00;;;;;6.99;100.00;97725.81;6236549;27;96393;-53
2024/01/06 04:37:29;;;;;;;;;52.00;41.60;;;;;7.05;100.00;97722.22;6258764;27;96521;-53
2024/01/06 04:40:33;;;;;;;;;53.40;42.60;;;;;7.14;100.00;97718.97;6224224;28;96870;-53
2024/01/06 04:43:36;;;;;;;;;50.00;39.00;;;;;7.06;100.00;97716.63;6231361;27;96961;-54
2024/01/06 04:46:40;;;;;;;;;49.60;41.00;;;;;7.25;100.00;97725.44;6227557;28;96230;-53
2024/01/06 04:49:43;;;;;;;;;49.20;39.00;;;;;7.23;100.00;97732.91;6241086;27;96197;-53
2024/01/06 04:52:46;;;;;;;;;53.60;41.80;;;;;7.22;100.00;97741.97;6249220;28;96774;-53
2024/01/06 04:55:50;;;;;;;;;50.40;40.00;;;;;7.09;100.00;97740.28;6249834;28;96292;-53
2024/01/06 04:58:53;;;;;;;;;53.20;40.40;;;;;7.16;100.00;97737.53;6240072;27;96391;-53
2024/01/06 05:01:58;;;;;;;;;52.00;41.75;;;;;7.23;100.00;97732.91;6231799;28;96650;-53
2024/01/06 05:05:01;;;;;;;;;53.00;42.40;;;;;7.26;100.00;97735.13;6234357;28;96147;-53
2024/01/06 05:08:05;;;;;;;;;50.80;39.80;;;;;7.23;100.00;97752.47;6236034;28;96571;-53
2024/01/06 05:11:10;;;;;;;;;49.80;38.20;;;;;7.25;100.00;97754.91;6234459;28;96293;-53
2024/01/06 05:14:13;;;;;;;;;51.00;41.00;;;;;7.26;100.00;97749.34;6232876;28;96879;-53
2024/01/06 05:17:16;;;;;;;;;50.20;39.80;;;;;7.17;100.00;97736.50;6239271;27;96247;-53
2024/01/06 05:20:19;;;;;;;;;48.20;39.00;;;;;7.37;100.00;97747.75;6229687;28;96983;-53
2024/01/06 05:23:22;;;;;;;;;48.80;39.20;;;;;7.27;100.00;97753.66;6229086;27;97070;-54
2024/01/06 05:26:27;;;;;;;;;49.20;40.20;;;;;7.29;100.00;97764.13;6237272;28;96959;-53
2024/01/06 05:29:30;;;;;;;;;47.00;39.00;;;;;7.37;100.00;97774.56;6237381;28;96849;-53
2024/01/06 05:32:33;;;;;;;;;49.80;39.80;;;;;7.44;100.00;97772.59;6230897;28;96303;-53
2024/01/06 05:35:37;;;;;;;;;48.80;38.80;;;;;7.47;100.00;97776.69;6233802;27;97588;-53
2024/01/06 05:38:40;;;;;;;;;48.00;39.00;;;;;7.53;100.00;97778.44;6233495;27;96181;-53
2024/01/06 05:41:44;;;;;;;;;50.00;41.00;;;;;7.54;100.00;97772.03;6228011;27;96227;-52
2024/01/06 05:44:47;;;;;;;;;49.60;38.80;;;;;7.61;100.00;97772.75;6232770;28;96433;-53
2024/01/06 05:47:50;;;;;;;;;49.20;39.00;;;;;7.70;100.00;97768.69;6237414;27;96512;-53
2024/01/06 05:50:53;;;;;;;;;52.50;39.75;;;;;7.78;100.00;97777.22;6229657;28;96202;-53
2024/01/06 05:53:56;;;;;;;;;50.40;40.00;;;;;7.83;100.00;97771.97;6245838;27;96257;-53
2024/01/06 05:57:01;;;;;;;;;51.40;42.00;;;;;7.88;100.00;97765.09;6240232;28;96409;-54
2024/01/06 06:00:08;;;;;;;;;48.60;39.00;;;;;7.90;100.00;97779.09;6230040;27;96777;-53
2024/01/06 06:03:14;;;;;;;;;49.40;40.00;;;;;7.64;100.00;97777.66;6243306;28;97006;-53
2024/01/06 06:06:17;;;;;;;;;49.20;40.00;;;;;7.55;100.00;97779.84;6266054;27;96638;-53
2024/01/06 06:09:21;;;;;;;;;47.80;38.80;;;;;7.47;100.00;97769.47;6226736;27;96917;-53
2024/01/06 06:12:26;;;;;;;;;47.40;38.60;;;;;7.42;100.00;97780.06;6252126;27;96183;-53
2024/01/06 06:15:29;;;;;;;;;48.00;39.40;;;;;7.18;100.00;97783.69;6237645;27;96302;-53
2024/01/06 06:18:33;;;;;;;;;52.00;40.40;;;;;7.18;100.00;97783.69;6227624;28;96349;-53
2024/01/06 06:21:36;;;;;;;;;47.25;39.00;;;;;7.28;100.00;97782.06;6219913;28;96927;-53
2024/01/06 06:24:39;;;;;;;;;46.80;38.00;;;;;7.26;100.00;97788.72;6254698;27;96245;-52
2024/01/06 06:27:44;;;;;;;;;49.75;40.75;;;;;7.35;100.00;97780.13;6239754;27;96950;-53
2024/01/06 06:30:47;;;;;;;;;49.60;40.60;;;;;7.39;100.00;97781.31;6222649;28;96287;-53
2024/01/06 06:33:51;;;;;;;;;47.60;39.00;;;;;7.47;100.00;97774.00;6244669;27;96257;-52
2024/01/06 06:36:54;;;;;;;;;47.40;39.40;;;;;7.53;100.00;97765.84;6230843;27;96336;-53
2024/01/06 06:39:57;;;;;;;;;52.00;41.00;;;;;7.61;100.00;97770.06;6230447;27;96283;-52
2024/01/06 06:43:02;;;;;;;;;50.00;40.40;;;;;7.51;100.00;97770.63;6238960;27;96919;-53
2024/01/06 06:46:05;;;;;;;;;48.60;39.80;;;;;7.58;100.00;97783.91;6269543;27;96299;-53
2024/01/06 06:49:08;;;;;;;;;44.60;36.60;;;;;7.54;100.00;97777.38;6269098;27;96324;-53
2024/01/06 06:52:12;;;;;;;;;51.50;39.50;;;;;7.36;100.00;97791.69;6242096;27;96385;-53
2024/01/06 06:55:15;;;;;;;;;49.60;40.00;;;;;7.11;100.00;97782.94;6228667;28;96366;-53
2024/01/06 06:58:19;;;;;;;;;51.00;40.00;;;;;6.75;100.00;97784.63;6244059;27;96245;-53
2024/01/06 07:01:22;;;;;;;;;47.60;39.40;;;;;6.79;100.00;97793.06;6233714;28;97665;-53
2024/01/06 07:04:27;;;;;;;;;49.50;39.00;;;;;6.66;100.00;97806.56;6224528;27;96316;-53
2024/01/06 07:07:30;;;;;;;;;49.80;40.00;;;;;6.70;100.00;97810.44;6228227;28;96447;-53
2024/01/06 07:10:33;;;;;;;;;48.20;39.00;;;;;6.77;100.00;97800.47;6231845;28;96495;-53
2024/01/06 07:13:37;;;;;;;;;47.00;38.00;;;;;6.95;100.00;97801.28;6240015;27;96904;-53
2024/01/06 07:16:40;;;;;;;;;48.75;39.00;;;;;7.13;100.00;97797.78;6230364;27;96400;-53
2024/01/06 07:19:43;;;;;;;;;46.60;38.20;;;;;7.31;100.00;97802.28;6230547;27;96310;-53
2024/01/06 07:22:47;;;;;;;;;49.00;39.00;;;;;7.46;100.00;97793.81;6231216;28;96305;-54
2024/01/06 07:25:50;;;;;;;;;49.60;39.00;;;;;7.47;100.00;97779.38;6229557;28;96348;-53
2024/01/06 07:28:54;;;;;;;;;45.60;37.60;;;;;7.75;100.00;97803.69;6232339;27;96247;-53
2024/01/06 07:31:57;;;;;;;;;46.80;38.00;;;;;7.81;100.00;97802.78;6222808;28;96696;-53
2024/01/06 07:35:00;;;;;;;;;49.00;39.00;;;;;7.76;100.00;97779.31;6231949;28;96609;-53
2024/01/06 07:38:10;;;;;;;;;44.00;36.00;;;;;7.95;100.00;97803.38;6228380;27;96888;-53
2024/01/06 07:41:13;;;;;;;;;47.00;36.00;;;;;7.89;100.00;97799.75;6229185;28;97142;-53
2024/01/06 07:44:22;;;;;;;;;44.80;36.20;;;;;7.90;100.00;97808.63;6231034;28;96266;-53
2024/01/06 07:47:25;;;;;;;;;45.00;36.00;;;;;7.92;100.00;97806.50;6231007;28;96427;-53
2024/01/06 07:50:28;;;;;;;;;46.00;37.20;;;;;8.02;100.00;97814.81;6232969;28;96398;-53
2024/01/06 07:53:32;;;;;;;;;45.00;36.00;;;;;8.02;100.00;97804.91;6241070;27;96304;-53
2024/01/06 07:56:35;;;;;;;;;48.40;36.40;;;;;8.01;100.00;97811.34;6239924;28;96895;-53
2024/01/06 07:59:39;;;;;;;;;46.00;37.33;;;;;7.94;100.00;97812.47;6241068;27;96227;-53
2024/01/06 08:02:42;;;;;;;;;45.40;37.00;;;;;7.83;100.00;97820.25;6250233;27;96510;-54
2024/01/06 08:05:46;;;;;;;;;49.60;38.40;;;;;7.67;100.00;97831.66;6253780;27;96709;-55
2024/01/06 08:08:49;;;;;;;;;44.00;35.00;;;;;7.76;100.00;97832.16;6268807;27;96325;-54
2024/01/06 08:11:53;;;;;;;;;42.80;35.20;;;;;7.87;100.00;97834.03;6234985;28;96320;-54
2024/01/06 08:14:57;;;;;;;;;40.60;35.00;;;;;7.83;100.00;97830.19;6235181;27;96221;-54
2024/01/06 08:18:00;;;;;;;;;41.00;33.80;;;;;7.73;100.00;97829.91;6234519;27;97052;-55
2024/01/06 08:21:04;;;;;;;;;38.80;33.00;;;;;7.84;100.00;97832.66;6252196;28;96404;-55
2024/01/06 08:24:07;;;;;;;;;43.00;35.20;;;;;7.91;100.00;97832.56;6239289;27;96777;-55
2024/01/06 08:27:10;;;;;;;;;43.00;35.00;;;;;7.93;100.00;97835.81;6240562;27;96326;-55
2024/01/06 08:30:15;;;;;;;;;37.80;33.00;;;;;8.10;100.00;97836.78;6242945;27;97492;-55
2024/01/06 08:33:18;;;;;;;;;40.50;35.00;;;;;8.14;100.00;97818.34;6246456;27;96323;-53
2024/01/06 08:36:22;;;;;;;;;41.40;33.20;;;;;8.39;100.00;97831.56;6236783;27;96623;-53
2024/01/06 08:39:26;;;;;;;;;39.20;33.20;;;;;8.52;100.00;97842.09;6247836;28;96597;-53
2024/01/06 08:42:29;;;;;;;;;44.40;34.40;;;;;8.42;100.00;97841.84;6237381;27;96219;-54
2024/01/06 08:45:33;;;;;;;;;41.00;34.50;;;;;8.37;100.00;97850.59;6243535;27;96500;-53
2024/01/06 08:48:36;;;;;;;;;40.20;33.80;;;;;8.40;100.00;97852.84;6229564;28;98954;-55
2024/01/06 08:51:40;;;;;;;;;44.50;36.50;;;;;8.33;100.00;97853.97;6239814;27;96326;-54
2024/01/06 08:54:43;;;;;;;;;42.00;36.00;;;;;8.21;100.00;97848.56;6242887;27;97515;-54
2024/01/06 08:57:46;;;;;;;;;45.00;36.00;;;;;8.35;100.00;97858.09;6241952;27;96360;-54
2024/01/06 09:00:53;;;;;;;;;45.00;35.00;;;;;8.48;100.00;97851.66;6246119;28;96533;-53
2024/01/06 09:03:57;;;;;;;;;45.00;36.50;;;;;8.52;100.00;97845.59;6215756;28;96346;-55
2024/01/06 09:07:00;;;;;;;;;43.60;36.00;;;;;8.59;100.00;97854.34;6230730;27;98597;-56
2024/01/06 09:10:03;;;;;;;;;47.00;37.60;;;;;8.50;100.00;97850.38;6226048;27;96314;-56
2024/01/06 09:13:07;;;;;;;;;40.00;34.00;;;;;8.49;100.00;97850.63;6220549;27;97435;-56
2024/01/06 09:16:11;;;;;;;;;46.00;38.00;;;;;8.56;100.00;97845.94;6228528;27;96326;-56
2024/01/06 09:19:14;;;;;;;;;47.40;38.20;;;;;8.60;100.00;97853.28;6236585;27;97078;-56
2024/01/06 09:22:18;;;;;;;;;45.00;36.20;;;;;8.70;100.00;97858.06;6227981;27;97490;-56
2024/01/06 09:25:23;;;;;;;;;43.00;34.60;;;;;8.79;100.00;97869.31;6229945;27;97318;-56
2024/01/06 09:28:26;;;;;;;;;45.00;36.80;;;;;8.78;100.00;97855.03;6222063;28;97508;-56
2024/01/06 09:31:32;;;;;;;;;45.80;37.00;;;;;8.73;100.00;97857.63;6225602;27;97623;-56
2024/01/06 09:34:35;;;;;;;;;44.50;35.00;;;;;8.64;100.00;97859.84;6237685;27;96225;-56
2024/01/06 09:37:42;;;;;;;;;47.80;38.60;;;;;8.64;100.00;97857.16;6236561;27;97503;-56
2024/01/06 09:40:45;;;;;;;;;43.00;36.00;;;;;8.59;100.00;97857.03;6232904;27;96354;-56
2024/01/06 09:43:49;;;;;;;;;43.00;35.00;;;;;8.55;100.00;97855.06;6232408;27;97169;-56
2024/01/06 09:46:54;;;;;;;;;45.00;37.00;;;;;8.56;100.00;97845.94;6227946;27;96221;-56
2024/01/06 09:50:03;;;;;;;;;44.40;35.40;;;;;8.26;100.00;97838.75;6230359;28;98420;-56
2024/01/06 09:53:07;;;;;;;;;47.75;39.00;;;;;8.47;100.00;97836.59;6237495;28;96706;-56
2024/01/06 09:56:12;;;;;;;;;43.00;35.00;;;;;8.55;100.00;97841.63;6218951;28;96410;-56
2024/01/06 09:59:15;;;;;;;;;39.00;33.00;;;;;8.54;100.00;97842.69;6237629;27;96573;-56
2024/01/06 10:02:22;;;;;;;;;43.60;37.00;;;;;8.63;100.00;97838.59;6213734;27;96266;-56
2024/01/06 10:05:25;;;;;;;;;42.00;35.00;;;;;8.69;100.00;97845.72;6228059;27;96412;-56
2024/01/06 10:08:28;;;;;;;;;43.40;36.00;;;;;8.82;100.00;97848.13;6220182;28;96530;-56
2024/01/06 10:11:31;;;;;;;;;40.25;34.25;;;;;8.90;100.00;97849.63;6241274;27;96253;-54
2024/01/06 10:14:34;;;;;;;;;43.50;36.00;;;;;8.81;100.00;97840.31;6242534;28;96704;-54
2024/01/06 10:17:39;;;;;;;;;42.40;34.40;;;;;8.90;100.00;97839.72;6232801;28;96903;-56
2024/01/06 10:20:44;;;;;;;;;42.00;35.00;;;;;9.00;100.00;97841.78;6234076;28;96362;-54
2024/01/06 10:23:50;;;;;;;;;41.80;33.80;;;;;9.12;100.00;97838.03;6230980;28;97043;-54
2024/01/06 10:26:53;;;;;;;;;45.00;35.25;;;;;9.12;100.00;97834.53;6239192;27;96726;-54
2024/01/06 10:29:56;;;;;;;;;45.40;35.60;;;;;8.95;100.00;97839.00;6239295;27;96493;-54
2024/01/06 10:33:02;;;;;;;;;45.00;38.00;;;;;9.06;100.00;97836.28;6244036;27;96467;-54
2024/01/06 10:36:06;;;;;;;;;41.60;35.00;;;;;9.14;100.00;97841.28;6231139;27;97199;-55
2024/01/06 10:39:09;;;;;;;;;37.00;33.00;;;;;9.09;100.00;97824.22;6242926;27;96468;-54
2024/01/06 10:42:14;;;;;;;;;42.80;34.80;;;;;9.04;100.00;97816.09;6228004;27;96445;-54
2024/01/06 10:45:17;;;;;;;;;43.00;34.20;;;;;9.15;100.00;97834.03;6228648;28;96900;-54
2024/01/06 10:48:23;;;;;;;;;43.40;35.00;;;;;9.12;100.00;97832.66;6224533;27;97055;-55
2024/01/06 10:51:29;;;;;;;;;43.00;35.00;;;;;9.13;100.00;97828.94;6227430;28;96953;-55
2024/01/06 10:54:34;;;;;;;;;42.50;35.50;;;;;9.07;100.00;97823.66;6225984;28;96281;-54
2024/01/06 10:57:40;;;;;;;;;38.60;33.00;;;;;9.02;100.00;97826.25;6219220;28;96333;-54
2024/01/06 11:00:44;;;;;;;;;40.80;34.40;;;;;8.88;100.00;97806.88;6236731;28;96226;-54
2024/01/06 11:03:49;;;;;;;;;39.40;33.60;;;;;9.04;100.00;97824.16;6242050;27;97634;-54
2024/01/06 11:06:53;;;;;;;;;45.00;37.80;;;;;8.82;100.00;97821.25;6244562;28;96290;-54
2024/01/06 11:09:59;;;;;;;;;38.75;33.00;;;;;8.91;100.00;97813.66;6232106;28;96302;-54
2024/01/06 11:13:13;;;;;;;;;38.00;33.00;;;;;8.99;100.00;97818.69;6230115;28;96911;-54
2024/01/06 11:16:37;;;;;;;;;36.40;32.00;;;;;9.14;100.00;97819.78;6236291;28;96374;-55
2024/01/06 11:19:47;;;;;;;;;38.00;32.80;;;;;9.07;100.00;97802.16;6236584;28;96261;-55
2024/01/06 11:22:52;;;;;;;;;36.00;32.00;;;;;9.18;100.00;97819.31;6234135;28;96463;-56
2024/01/06 11:25:55;;;;;;;;;44.60;35.60;;;;;9.30;100.00;97814.72;6230667;28;96360;-56
2024/01/06 11:29:00;;;;;;;;;40.40;33.40;;;;;9.44;100.00;97826.81;6234104;28;96753;-56
2024/01/06 11:32:20;;;;;;;;;41.00;33.00;;;;;9.40;100.00;97821.09;6234379;28;96873;-57
2024/01/06 11:35:27;;;;;;;;;39.40;33.40;;;;;9.40;100.00;97820.28;6221405;28;97515;-56
2024/01/06 11:38:34;;;;;;;;;39.50;33.00;;;;;9.31;100.00;97814.47;6225724;27;96952;-56
2024/01/06 11:41:50;;;;;;;;;40.00;33.00;;;;;9.18;100.00;97814.75;6219242;28;97018;-56
2024/01/06 11:44:53;;;;;;;;;42.50;33.00;;;;;8.91;100.00;97819.84;6231954;28;96658;-56
2024/01/06 11:47:58;;;;;;;;;39.00;34.00;;;;;9.03;100.00;97820.66;6222292;28;96221;-56
2024/01/06 11:51:04;;;;;;;;;42.33;35.00;;;;;9.08;100.00;97817.25;6224730;28;97581;-56
2024/01/06 11:54:07;;;;;;;;;40.75;34.75;;;;;9.14;100.00;97814.41;6218800;28;96468;-56
2024/01/06 11:57:10;;;;;;;;;45.20;36.20;;;;;9.29;100.00;97821.13;6217980;28;97132;-56
2024/01/06 12:00:15;;;;;;;;;44.00;34.00;;;;;9.29;100.00;97813.06;6226145;27;96282;-56
2024/01/06 12:03:18;;;;;;;;;39.00;34.00;;;;;9.37;100.00;97818.09;6224551;27;97249;-56
2024/01/06 12:06:22;;;;;;;;;40.60;34.80;;;;;9.43;100.00;97817.13;6222242;28;96609;-56
2024/01/06 12:09:26;;;;;;;;;42.00;34.50;;;;;9.48;100.00;97823.41;6227588;28;96832;-56
2024/01/06 12:12:29;;;;;;;;;39.00;33.20;;;;;9.49;100.00;97813.47;6221582;28;96552;-56
2024/01/06 12:15:34;;;;;;;;;40.20;33.20;;;;;9.60;100.00;97822.53;6220481;28;96454;-56
2024/01/06 12:18:38;;;;;;;;;40.60;34.00;;;;;9.61;100.00;97825.00;6224098;27;96455;-56
2024/01/06 12:21:43;;;;;;;;;38.40;32.00;;;;;9.66;100.00;97818.88;6227647;28;96394;-56
2024/01/06 12:24:46;;;;;;;;;35.20;32.20;;;;;9.70;100.00;97815.47;6221626;27;96516;-57
2024/01/06 12:27:50;;;;;;;;;40.60;34.40;;;;;9.68;100.00;97828.34;6223963;28;96358;-56
2024/01/06 12:30:55;;;;;;;;;36.00;30.60;;;;;9.70;100.00;97826.25;6221750;27;97112;-56
2024/01/06 12:33:58;;;;;;;;;40.80;33.40;;;;;9.76;100.00;97827.16;6262918;27;96359;-55
2024/01/06 12:37:03;;;;;;;;;42.60;34.60;;;;;9.83;100.00;97833.19;6258015;28;96314;-55
2024/01/06 12:40:10;;;;;;;;;41.25;34.25;;;;;9.88;100.00;97835.97;6239509;28;96028;-54
2024/01/06 12:43:13;;;;;;;;;39.80;33.80;;;;;9.81;100.00;97827.25;6241252;28;96273;-55
2024/01/06 12:46:16;;;;;;;;;40.20;33.40;;;;;9.90;100.00;97836.56;6236734;28;96308;-55
2024/01/06 12:49:19;;;;;;;;;43.20;35.80;;;;;9.76;100.00;97851.38;6248225;28;96299;-55
2024/01/06 12:52:24;;;;;;;;;38.00;33.00;;;;;9.60;100.00;97846.75;6264952;27;97031;-55
2024/01/06 12:55:27;;;;;;;;;45.00;36.00;;;;;9.56;100.00;97852.63;6254352;28;96617;-55
2024/01/06 12:58:30;;;;;;;;;35.40;32.40;;;;;9.56;100.00;97863.38;6251660;28;96328;-55
2024/01/06 13:01:33;;;;;;;;;38.40;32.00;;;;;9.43;100.00;97860.19;6256548;28;96696;-55
2024/01/06 13:04:36;;;;;;;;;40.60;33.00;;;;;9.23;100.00;97859.75;6271154;27;96748;-55
2024/01/06 13:07:41;;;;;;;;;37.40;32.60;;;;;9.12;100.00;97866.78;6239018;28;96524;-55
2024/01/06 13:10:44;;;;;;;;;39.50;34.25;;;;;8.73;100.00;97864.84;6255232;28;96362;-55
2024/01/06 13:13:47;;;;;;;;;39.00;32.00;;;;;8.75;100.00;97871.63;6241864;28;96416;-55
2024/01/06 13:16:50;;;;;;;;;36.40;32.40;;;;;8.89;100.00;97872.22;6244134;27;96343;-55
2024/01/06 13:19:53;;;;;;;;;38.80;32.00;;;;;8.87;100.00;97868.94;6239990;28;96231;-54
2024/01/06 13:22:58;;;;;;;;;35.00;32.00;;;;;8.80;100.00;97874.41;6246838;28;97620;-54
2024/01/06 13:26:01;;;;;;;;;33.75;30.50;;;;;8.93;100.00;97870.69;6267728;27;96240;-55
2024/01/06 13:29:04;;;;;;;;;33.40;31.40;;;;;9.00;100.00;97869.50;6261903;28;96337;-54
2024/01/06 13:32:07;;;;;;;;;35.60;32.00;;;;;8.88;100.00;97865.19;6243132;28;96974;-55
2024/01/06 13:35:11;;;;;;;;;36.50;31.50;;;;;8.85;100.00;97865.66;6242572;28;96966;-55
2024/01/06 13:38:17;;;;;;;;;34.00;31.00;;;;;8.66;100.00;97862.28;6239645;27;98410;-55
2024/01/06 13:41:20;;;;;;;;;36.00;32.00;;;;;8.84;100.00;97872.91;6250062;27;96334;-54
2024/01/06 13:44:23;;;;;;;;;33.75;30.50;;;;;8.85;100.00;97873.72;6229549;27;96630;-54
2024/01/06 13:47:26;;;;;;;;;37.00;32.00;;;;;8.90;100.00;97876.50;6245183;28;96301;-54
2024/01/06 13:50:29;;;;;;;;;36.25;32.00;;;;;8.88;100.00;97874.09;6244596;28;97015;-54
2024/01/06 13:53:34;;;;;;;;;36.40;32.40;;;;;8.73;100.00;97880.97;6230013;27;96609;-54
2024/01/06 13:56:37;;;;;;;;;38.00;32.00;;;;;8.75;100.00;97886.94;6225287;28;96305;-54
2024/01/06 13:59:42;;;;;;;;;38.00;32.00;;;;;8.78;100.00;97889.97;6230446;28;96245;-54
2024/01/06 14:02:46;;;;;;;;;41.00;33.00;;;;;8.68;100.00;97876.31;6244522;27;96250;-54
2024/01/06 14:05:51;;;;;;;;;39.00;33.75;;;;;8.74;100.00;97888.00;6257391;27;97595;-54